Time;durP1;ratioP1;P1;durP2;ratioP2;P2;SDS_P1;SDS_P2;PMS_P1;PMS_P2;Temp;Humidity;BMP_temperature;BMP_pressure;BME280_temperature;BME280_humidity;BME280_pressure;Samples;Min_cycle;Max_cycle;Signal;HPM_P1;HPM_P2
2021/09/23 00:01:02;;;;;;;19.83;5.25;;;;;;;;;;5023263;28;20049;-65
2021/09/23 00:03:43;;;;;;;18.67;5.97;;;;;;;;;;5022423;28;20049;-65
2021/09/23 00:06:11;;;;;;;25.05;5.78;;;;;;;;;;5021676;28;20056;-65
2021/09/23 00:08:38;;;;;;;18.65;5.45;;;;;;;;;;5022919;28;20057;-66
2021/09/23 00:11:04;;;;;;;24.10;5.70;;;;;;;;;;5018480;28;20095;-66
2021/09/23 00:13:32;;;;;;;18.77;6.03;;;;;;;;;;5018530;28;20053;-66
2021/09/23 00:16:00;;;;;;;24.15;6.68;;;;;;;;;;5005885;28;20053;-66
2021/09/23 00:18:29;;;;;;;25.15;5.32;;;;;;;;;;5022638;28;20057;-66
2021/09/23 00:20:56;;;;;;;17.27;4.90;;;;;;;;;;5021556;28;20107;-66
2021/09/23 00:23:22;;;;;;;22.92;5.10;;;;;;;;;;5026919;28;20053;-66
2021/09/23 00:25:49;;;;;;;17.23;5.18;;;;;;;;;;5022259;28;20057;-66
2021/09/23 00:28:16;;;;;;;25.35;5.25;;;;;;;;;;5021915;28;20046;-66
2021/09/23 00:30:42;;;;;;;23.50;5.63;;;;;;;;;;5020585;28;20062;-66
2021/09/23 00:33:09;;;;;;;21.58;5.47;;;;;;;;;;5024060;28;20064;-66
2021/09/23 00:35:36;;;;;;;17.48;5.80;;;;;;;;;;5024672;28;20115;-66
2021/09/23 00:38:02;;;;;;;17.48;5.40;;;;;;;;;;5029855;28;20129;-66
2021/09/23 00:40:29;;;;;;;21.25;5.72;;;;;;;;;;5026624;28;20079;-65
2021/09/23 00:42:56;;;;;;;13.13;5.60;;;;;;;;;;5024014;28;20038;-66
2021/09/23 00:45:22;;;;;;;19.48;5.20;;;;;;;;;;5026336;28;20058;-66
2021/09/23 00:47:50;;;;;;;25.80;5.70;;;;;;;;;;5025403;28;20510;-66
2021/09/23 00:50:16;;;;;;;;;;;;;;;;;;5026651;28;20058;-66
2021/09/23 00:52:43;;;;;;;15.75;4.20;;;;;;;;;;5024185;28;19936;-66
2021/09/23 00:55:10;;;;;;;11.57;3.40;;;;;;;;;;5029353;28;20057;-66
2021/09/23 00:57:39;;;;;;;12.00;2.95;;;;;;;;;;5024474;28;20049;-66
2021/09/23 01:00:07;;;;;;;6.45;2.90;;;;;;;;;;5020607;28;20426;-67
2021/09/23 01:02:33;;;;;;;5.90;2.90;;;;;;;;;;5026502;28;20068;-67
2021/09/23 01:05:00;;;;;;;6.75;2.83;;;;;;;;;;5032351;28;20609;-67
2021/09/23 01:07:27;;;;;;;9.00;2.65;;;;;;;;;;5024970;28;20109;-67
2021/09/23 01:09:53;;;;;;;8.63;2.83;;;;;;;;;;5032324;28;20053;-67
2021/09/23 01:12:22;;;;;;;7.63;2.70;;;;;;;;;;5018799;28;20061;-67
2021/09/23 01:14:50;;;;;;;9.40;3.13;;;;;;;;;;5027107;28;20104;-67
2021/09/23 01:17:16;;;;;;;4.88;2.70;;;;;;;;;;5024853;28;20045;-67
2021/09/23 01:19:44;;;;;;;5.50;2.47;;;;;;;;;;5025582;28;20431;-67
2021/09/23 01:22:11;;;;;;;6.05;2.55;;;;;;;;;;5027522;28;20061;-67
2021/09/23 01:24:38;;;;;;;5.07;2.20;;;;;;;;;;5020830;28;20107;-66
2021/09/23 01:27:06;;;;;;;7.43;2.50;;;;;;;;;;5026325;28;20087;-66
2021/09/23 01:29:34;;;;;;;5.82;2.88;;;;;;;;;;5027222;28;20052;-66
2021/09/23 01:32:02;;;;;;;4.93;2.47;;;;;;;;;;5022071;28;20057;-66
2021/09/23 01:34:29;;;;;;;6.88;2.63;;;;;;;;;;5025581;28;20041;-66
2021/09/23 01:36:55;;;;;;;5.60;2.33;;;;;;;;;;5027422;28;20695;-66
2021/09/23 01:39:23;;;;;;;6.82;2.30;;;;;;;;;;5025462;28;20057;-66
2021/09/23 01:41:50;;;;;;;8.13;2.60;;;;;;;;;;5025890;28;20045;-66
2021/09/23 01:44:17;;;;;;;5.53;2.40;;;;;;;;;;5023785;28;20038;-66
2021/09/23 01:46:43;;;;;;;6.00;2.50;;;;;;;;;;5019530;28;20308;-66
2021/09/23 01:49:11;;;;;;;4.70;2.47;;;;;;;;;;5025442;28;20054;-67
2021/09/23 01:51:38;;;;;;;3.92;2.40;;;;;;;;;;5025583;28;20045;-66
2021/09/23 01:54:04;;;;;;;4.88;2.05;;;;;;;;;;5023398;28;20080;-66
2021/09/23 01:56:31;;;;;;;4.68;2.30;;;;;;;;;;5028851;28;20076;-67
2021/09/23 01:58:58;;;;;;;5.15;2.63;;;;;;;;;;5025832;28;20041;-67
2021/09/23 02:01:24;;;;;;;7.07;2.72;;;;;;;;;;5026620;28;20058;-67
2021/09/23 02:03:51;;;;;;;9.65;3.00;;;;;;;;;;5029699;28;20041;-66
2021/09/23 02:06:21;;;;;;;8.48;2.50;;;;;;;;;;5025483;28;20054;-66
2021/09/23 02:08:48;;;;;;;6.90;2.40;;;;;;;;;;5020902;28;20045;-66
2021/09/23 02:11:16;;;;;;;5.80;2.70;;;;;;;;;;5021914;28;20049;-67
2021/09/23 02:13:43;;;;;;;6.25;2.67;;;;;;;;;;5021473;28;20045;-67
2021/09/23 02:16:09;;;;;;;12.27;3.20;;;;;;;;;;5022891;28;20061;-66
2021/09/23 02:18:36;;;;;;;14.32;3.47;;;;;;;;;;5017817;28;20058;-67
2021/09/23 02:21:03;;;;;;;8.50;3.67;;;;;;;;;;5025775;28;20095;-67
2021/09/23 02:23:29;;;;;;;10.80;3.38;;;;;;;;;;5022098;28;20049;-67
2021/09/23 02:25:56;;;;;;;10.03;2.60;;;;;;;;;;5020464;28;20046;-67
2021/09/23 02:28:23;;;;;;;9.68;3.00;;;;;;;;;;5023945;28;20301;-67
2021/09/23 02:30:50;;;;;;;7.07;3.50;;;;;;;;;;5021462;28;20046;-67
2021/09/23 02:33:17;;;;;;;;;;;;;;;;;;5021105;28;20131;-67
2021/09/23 02:35:43;;;;;;;14.48;3.38;;;;;;;;;;5024203;28;20283;-67
2021/09/23 02:38:10;;;;;;;11.45;3.38;;;;;;;;;;5020269;28;20046;-67
2021/09/23 02:40:37;;;;;;;9.98;3.67;;;;;;;;;;5028150;28;20056;-67
2021/09/23 02:43:03;;;;;;;12.50;4.50;;;;;;;;;;5022527;28;20089;-67
2021/09/23 02:45:30;;;;;;;17.20;5.00;;;;;;;;;;5022328;28;20049;-66
2021/09/23 02:47:57;;;;;;;19.17;6.18;;;;;;;;;;5015599;28;20658;-66
2021/09/23 02:50:23;;;;;;;19.20;5.72;;;;;;;;;;5024882;28;20563;-68
2021/09/23 02:52:50;;;;;;;21.08;6.10;;;;;;;;;;5027299;28;20053;-67
2021/09/23 02:55:17;;;;;;;22.40;6.50;;;;;;;;;;5023415;28;20046;-67
2021/09/23 02:57:43;;;;;;;23.80;5.78;;;;;;;;;;5019033;28;20080;-66
2021/09/23 03:00:10;;;;;;;20.60;6.10;;;;;;;;;;5022865;28;20049;-66
2021/09/23 03:02:37;;;;;;;25.20;6.43;;;;;;;;;;5023498;28;20107;-66
2021/09/23 03:05:04;;;;;;;19.17;6.53;;;;;;;;;;5022921;28;20046;-66
2021/09/23 03:07:30;;;;;;;34.05;6.45;;;;;;;;;;5021795;28;20096;-66
2021/09/23 03:09:57;;;;;;;34.08;6.57;;;;;;;;;;5022270;28;20116;-66
2021/09/23 03:12:24;;;;;;;13.30;4.80;;;;;;;;;;5020607;28;20614;-66
2021/09/23 03:14:50;;;;;;;14.63;4.47;;;;;;;;;;5017093;28;20395;-66
2021/09/23 03:17:18;;;;;;;;;;;;;;;;;;5020421;28;20308;-66
2021/09/23 03:19:44;;;;;;;10.95;4.05;;;;;;;;;;5015860;28;19933;-66
2021/09/23 03:22:11;;;;;;;12.63;3.88;;;;;;;;;;5017201;28;20053;-66
2021/09/23 03:24:37;;;;;;;16.60;4.87;;;;;;;;;;5021051;28;20053;-66
2021/09/23 03:27:04;;;;;;;19.65;5.28;;;;;;;;;;5028326;28;20088;-66
2021/09/23 03:29:31;;;;;;;9.55;3.75;;;;;;;;;;5019695;28;20057;-66
2021/09/23 03:31:58;;;;;;;8.90;3.22;;;;;;;;;;5025884;28;20489;-66
2021/09/23 03:34:24;;;;;;;12.10;3.38;;;;;;;;;;5018592;28;20046;-66
2021/09/23 03:36:51;;;;;;;13.30;3.90;;;;;;;;;;5018380;28;20057;-66
2021/09/23 03:39:17;;;;;;;8.90;3.03;;;;;;;;;;5018519;28;20071;-66
2021/09/23 03:41:44;;;;;;;9.65;3.33;;;;;;;;;;5021966;28;20092;-66
2021/09/23 03:44:10;;;;;;;8.00;3.70;;;;;;;;;;5025208;28;20049;-66
2021/09/23 03:46:38;;;;;;;;;;;;;;;;;;5023595;28;20037;-66
2021/09/23 03:49:04;;;;;;;9.38;4.00;;;;;;;;;;5020954;28;19932;-66
2021/09/23 03:51:31;;;;;;;11.10;3.83;;;;;;;;;;5022994;28;20583;-66
2021/09/23 03:53:58;;;;;;;18.58;5.03;;;;;;;;;;5008834;28;20049;-66
2021/09/23 03:56:24;;;;;;;25.40;5.30;;;;;;;;;;5020793;28;20077;-65
2021/09/23 03:58:51;;;;;;;12.32;5.13;;;;;;;;;;5021315;28;20095;-65
2021/09/23 04:01:18;;;;;;;18.08;5.32;;;;;;;;;;5019596;28;20057;-66
2021/09/23 04:03:45;;;;;;;20.33;5.00;;;;;;;;;;5026124;28;20045;-66
2021/09/23 04:06:12;;;;;;;15.95;5.68;;;;;;;;;;5017961;28;20081;-66
2021/09/23 04:08:39;;;;;;;;;;;;;;;;;;5018957;28;20512;-66
2021/09/23 04:11:06;;;;;;;16.75;4.32;;;;;;;;;;5028812;28;19925;-66
2021/09/23 04:13:32;;;;;;;12.02;4.35;;;;;;;;;;5023919;28;20057;-66
2021/09/23 04:15:59;;;;;;;14.37;4.40;;;;;;;;;;5024792;28;20095;-66
2021/09/23 04:18:25;;;;;;;15.30;4.65;;;;;;;;;;5021959;28;20141;-66
2021/09/23 04:20:52;;;;;;;11.32;4.35;;;;;;;;;;5025526;28;20045;-66
2021/09/23 04:23:20;;;;;;;13.57;4.82;;;;;;;;;;5026860;28;20042;-66
2021/09/23 04:25:46;;;;;;;8.55;3.55;;;;;;;;;;5020469;28;20100;-65
2021/09/23 04:28:12;;;;;;;10.38;4.20;;;;;;;;;;5025834;28;20509;-66
2021/09/23 04:30:40;;;;;;;13.45;4.25;;;;;;;;;;5023321;28;20041;-65
2021/09/23 04:33:06;;;;;;;11.40;4.45;;;;;;;;;;5025412;28;20085;-65
2021/09/23 04:35:34;;;;;;;13.00;5.18;;;;;;;;;;5012654;28;20045;-66
2021/09/23 04:38:01;;;;;;;10.10;4.75;;;;;;;;;;5024200;28;20575;-66
2021/09/23 04:40:27;;;;;;;13.27;4.85;;;;;;;;;;5022304;28;20100;-66
2021/09/23 04:42:54;;;;;;;7.38;3.80;;;;;;;;;;5027911;28;20509;-66
2021/09/23 04:45:21;;;;;;;11.77;4.80;;;;;;;;;;5020274;28;20046;-66
2021/09/23 04:47:47;;;;;;;17.25;4.55;;;;;;;;;;5026442;28;20046;-66
2021/09/23 04:50:13;;;;;;;12.90;4.55;;;;;;;;;;5025461;28;20104;-65
2021/09/23 04:52:43;;;;;;;16.38;4.70;;;;;;;;;;5027636;28;20468;-66
2021/09/23 04:55:10;;;;;;;13.98;4.63;;;;;;;;;;5023609;28;20049;-66
2021/09/23 04:57:36;;;;;;;11.23;4.68;;;;;;;;;;5018799;28;20057;-66
2021/09/23 05:00:04;;;;;;;22.65;5.75;;;;;;;;;;5021099;28;20061;-66
2021/09/23 05:02:31;;;;;;;13.85;4.88;;;;;;;;;;5024482;28;20507;-67
2021/09/23 05:04:58;;;;;;;;;;;;;;;;;;5027861;28;20077;-67
2021/09/23 05:07:24;;;;;;;16.83;4.13;;;;;;;;;;5023410;28;19932;-67
2021/09/23 05:09:51;;;;;;;9.60;4.25;;;;;;;;;;5022850;28;20112;-67
2021/09/23 05:12:17;;;;;;;14.83;4.53;;;;;;;;;;5021389;28;20049;-67
2021/09/23 05:14:46;;;;;;;26.63;5.88;;;;;;;;;;5021295;28;20050;-66
2021/09/23 05:17:12;;;;;;;13.95;3.92;;;;;;;;;;5025317;28;20545;-66
2021/09/23 05:19:39;;;;;;;8.75;3.92;;;;;;;;;;5026259;28;20037;-67
2021/09/23 05:22:05;;;;;;;9.18;4.30;;;;;;;;;;5025504;28;20568;-67
2021/09/23 05:24:32;;;;;;;16.42;5.65;;;;;;;;;;5024918;28;20095;-66
2021/09/23 05:26:58;;;;;;;14.18;5.57;;;;;;;;;;5020499;28;20496;-67
2021/09/23 05:29:26;;;;;;;12.02;5.40;;;;;;;;;;5023929;28;20501;-66
2021/09/23 05:31:53;;;;;;;15.85;6.30;;;;;;;;;;5022437;28;20497;-66
2021/09/23 05:34:19;;;;;;;13.18;5.30;;;;;;;;;;5022139;28;20128;-66
2021/09/23 05:36:46;;;;;;;15.50;5.50;;;;;;;;;;5021816;28;20049;-66
2021/09/23 05:39:13;;;;;;;9.25;4.72;;;;;;;;;;5016978;28;20285;-66
2021/09/23 05:41:41;;;;;;;16.60;5.95;;;;;;;;;;5018431;28;20104;-66
2021/09/23 05:44:10;;;;;;;10.65;4.75;;;;;;;;;;5020350;28;20523;-66
2021/09/23 05:46:40;;;;;;;13.57;4.80;;;;;;;;;;5021021;28;20058;-66
2021/09/23 05:49:07;;;;;;;7.97;3.83;;;;;;;;;;5009648;28;20072;-66
2021/09/23 05:51:34;;;;;;;11.07;4.72;;;;;;;;;;5022838;28;20053;-66
2021/09/23 05:54:00;;;;;;;10.88;4.25;;;;;;;;;;5021647;28;20096;-66
2021/09/23 05:56:27;;;;;;;10.18;3.80;;;;;;;;;;5025015;28;20065;-67
2021/09/23 05:58:53;;;;;;;13.23;4.30;;;;;;;;;;5028776;28;20456;-66
2021/09/23 06:01:20;;;;;;;6.28;3.20;;;;;;;;;;5027758;28;20061;-66
2021/09/23 06:03:50;;;;;;;6.85;3.05;;;;;;;;;;5025686;28;20049;-66
2021/09/23 06:06:17;;;;;;;12.70;3.63;;;;;;;;;;5028300;28;20049;-66
2021/09/23 06:08:43;;;;;;;8.60;3.00;;;;;;;;;;5026466;28;20049;-66
2021/09/23 06:11:10;;;;;;;9.35;3.20;;;;;;;;;;5024339;28;20684;-66
2021/09/23 06:13:37;;;;;;;6.88;3.40;;;;;;;;;;5021979;28;20057;-66
2021/09/23 06:16:04;;;;;;;13.55;4.07;;;;;;;;;;5026086;28;20045;-68
2021/09/23 06:18:31;;;;;;;16.40;4.27;;;;;;;;;;5024846;28;20058;-68
2021/09/23 06:20:57;;;;;;;9.10;3.20;;;;;;;;;;5025527;28;20296;-67
2021/09/23 06:23:24;;;;;;;7.28;1.40;;;;;;;;;;5022062;28;20301;-66
2021/09/23 06:25:50;;;;;;;3.10;1.40;;;;;;;;;;5025829;28;20046;-66
2021/09/23 06:28:17;;;;;;;4.40;1.30;;;;;;;;;;5024845;28;20104;-65
2021/09/23 06:30:43;;;;;;;5.65;1.08;;;;;;;;;;5022610;28;20453;-65
2021/09/23 06:33:10;;;;;;;7.15;1.08;;;;;;;;;;5026637;28;20076;-65
2021/09/23 06:35:37;;;;;;;6.20;1.23;;;;;;;;;;5020154;28;20448;-65
2021/09/23 06:38:03;;;;;;;4.78;1.42;;;;;;;;;;5019995;28;20048;-65
2021/09/23 06:40:30;;;;;;;9.38;2.05;;;;;;;;;;5022120;28;20112;-65
2021/09/23 06:42:57;;;;;;;4.75;1.67;;;;;;;;;;5024361;28;20054;-65
2021/09/23 06:45:23;;;;;;;5.60;1.73;;;;;;;;;;5023443;28;20080;-65
2021/09/23 06:47:51;;;;;;;6.18;1.55;;;;;;;;;;5020108;28;20046;-65
2021/09/23 06:50:20;;;;;;;13.32;2.15;;;;;;;;;;5021567;28;20054;-65
2021/09/23 06:52:47;;;;;;;9.13;2.00;;;;;;;;;;5022513;28;20390;-66
2021/09/23 06:55:14;;;;;;;5.38;1.67;;;;;;;;;;5020966;28;20057;-65
2021/09/23 06:57:40;;;;;;;5.82;1.08;;;;;;;;;;5014674;28;20046;-65
2021/09/23 07:00:07;;;;;;;12.40;1.80;;;;;;;;;;5013234;28;20053;-65
2021/09/23 07:02:34;;;;;;;7.57;1.40;;;;;;;;;;5023004;28;20103;-65
2021/09/23 07:05:01;;;;;;;13.70;1.98;;;;;;;;;;5025829;28;20050;-65
2021/09/23 07:07:28;;;;;;;11.05;1.58;;;;;;;;;;5021768;28;20050;-65
2021/09/23 07:09:55;;;;;;;12.27;2.00;;;;;;;;;;5021368;28;20042;-65
2021/09/23 07:12:22;;;;;;;8.85;1.88;;;;;;;;;;5021271;28;20061;-65
2021/09/23 07:14:49;;;;;;;;;;;;;;;;;;5024019;28;20405;-65
2021/09/23 07:17:16;;;;;;;14.10;1.92;;;;;;;;;;5022772;28;19941;-65
2021/09/23 07:19:43;;;;;;;5.60;1.60;;;;;;;;;;5023398;28;20049;-65
2021/09/23 07:22:09;;;;;;;11.57;1.70;;;;;;;;;;5020053;28;20536;-66
2021/09/23 07:24:37;;;;;;;6.60;1.60;;;;;;;;;;5018700;28;20064;-66
2021/09/23 07:27:05;;;;;;;7.20;1.80;;;;;;;;;;5024403;28;20046;-65
2021/09/23 07:29:31;;;;;;;4.38;1.88;;;;;;;;;;5021500;28;20056;-65
2021/09/23 07:31:58;;;;;;;10.57;1.90;;;;;;;;;;5022981;28;20042;-65
2021/09/23 07:34:25;;;;;;;20.05;2.17;;;;;;;;;;5019758;28;20087;-66
2021/09/23 07:36:51;;;;;;;6.80;1.85;;;;;;;;;;5019728;28;20053;-65
2021/09/23 07:39:18;;;;;;;11.07;1.70;;;;;;;;;;5023494;28;20050;-65
2021/09/23 07:41:45;;;;;;;11.33;2.10;;;;;;;;;;5020477;28;20056;-65
2021/09/23 07:44:14;;;;;;;11.35;1.77;;;;;;;;;;5023856;28;20046;-65
2021/09/23 07:46:41;;;;;;;8.20;1.75;;;;;;;;;;5019853;28;20502;-65
2021/09/23 07:49:08;;;;;;;11.73;1.95;;;;;;;;;;5024057;28;20061;-65
2021/09/23 07:51:35;;;;;;;8.40;1.60;;;;;;;;;;5025149;28;20466;-65
2021/09/23 07:54:03;;;;;;;5.43;1.48;;;;;;;;;;5024200;28;20056;-65
2021/09/23 07:56:30;;;;;;;7.05;1.67;;;;;;;;;;5024233;28;20038;-65
2021/09/23 07:58:56;;;;;;;5.85;1.30;;;;;;;;;;5030386;28;20618;-64
2021/09/23 08:01:23;;;;;;;9.50;1.70;;;;;;;;;;5017798;28;20046;-64
2021/09/23 08:03:50;;;;;;;12.27;1.43;;;;;;;;;;5028630;28;20053;-64
2021/09/23 08:06:17;;;;;;;5.45;1.55;;;;;;;;;;5027442;28;20345;-64
2021/09/23 08:08:44;;;;;;;5.18;1.75;;;;;;;;;;5021782;28;20049;-65
2021/09/23 08:11:11;;;;;;;3.78;1.17;;;;;;;;;;5020956;28;20065;-64
2021/09/23 08:13:37;;;;;;;8.97;1.40;;;;;;;;;;5021860;28;20448;-64
2021/09/23 08:16:04;;;;;;;5.03;1.40;;;;;;;;;;5024440;28;20668;-64
2021/09/23 08:18:31;;;;;;;7.10;1.33;;;;;;;;;;5021344;28;20056;-64
2021/09/23 08:20:57;;;;;;;6.00;1.80;;;;;;;;;;5023941;28;20060;-64
2021/09/23 08:23:24;;;;;;;5.25;1.15;;;;;;;;;;5027604;28;20104;-64
2021/09/23 08:25:52;;;;;;;3.85;1.30;;;;;;;;;;5027628;28;20045;-64
2021/09/23 08:28:23;;;;;;;8.43;1.58;;;;;;;;;;5024927;28;20053;-64
2021/09/23 08:30:50;;;;;;;3.83;0.98;;;;;;;;;;5020287;28;20515;-64
2021/09/23 08:33:17;;;;;;;5.65;1.17;;;;;;;;;;5024142;28;20502;-64
2021/09/23 08:35:44;;;;;;;7.57;1.30;;;;;;;;;;5022514;28;20497;-64
2021/09/23 08:38:11;;;;;;;5.03;1.13;;;;;;;;;;5027557;28;20056;-64
2021/09/23 08:40:38;;;;;;;7.75;1.83;;;;;;;;;;5026932;28;20049;-64
2021/09/23 08:43:05;;;;;;;4.22;1.25;;;;;;;;;;5030696;28;20045;-64
2021/09/23 08:45:32;;;;;;;13.18;1.42;;;;;;;;;;5025022;28;20037;-64
2021/09/23 08:47:59;;;;;;;6.37;1.20;;;;;;;;;;5024763;28;20065;-65
2021/09/23 08:50:25;;;;;;;2.65;1.13;;;;;;;;;;5025001;28;20131;-64
2021/09/23 08:52:52;;;;;;;6.25;1.60;;;;;;;;;;5023806;28;20544;-64
2021/09/23 08:55:26;;;;;;;4.90;1.17;;;;;;;;;;5023939;28;20068;-64
2021/09/23 08:57:53;;;;;;;4.03;1.08;;;;;;;;;;5023789;28;20410;-64
2021/09/23 09:00:21;;;;;;;7.15;1.10;;;;;;;;;;5029457;28;20412;-65
2021/09/23 09:02:58;;;;;;;9.25;1.88;;;;;;;;;;5024152;28;20053;-65
2021/09/23 09:05:25;;;;;;;4.87;1.60;;;;;;;;;;5025031;28;20056;-65
2021/09/23 09:08:16;;;;;;;5.60;1.10;;;;;;;;;;5021355;28;20050;-65
2021/09/23 09:10:43;;;;;;;4.03;1.00;;;;;;;;;;5026225;28;20057;-65
2021/09/23 09:13:09;;;;;;;3.65;1.10;;;;;;;;;;5023061;28;20045;-65
2021/09/23 09:15:37;;;;;;;8.88;1.20;;;;;;;;;;5029482;28;20052;-64
2021/09/23 09:18:16;;;;;;;5.50;1.20;;;;;;;;;;5023262;28;20057;-65
2021/09/23 09:20:57;;;;;;;4.13;0.90;;;;;;;;;;5020918;28;20128;-64
2021/09/23 09:23:25;;;;;;;1.98;0.98;;;;;;;;;;5026663;28;20311;-64
2021/09/23 09:25:51;;;;;;;;;;;;;;;;;;5018295;28;20485;-64
2021/09/23 09:28:18;;;;;;;4.03;0.70;;;;;;;;;;5020105;28;19944;-64
2021/09/23 09:30:45;;;;;;;1.88;0.77;;;;;;;;;;5021949;28;20058;-64
2021/09/23 09:33:11;;;;;;;4.88;0.70;;;;;;;;;;5024823;28;20552;-64
2021/09/23 09:35:38;;;;;;;1.70;0.70;;;;;;;;;;5027666;28;20085;-64
2021/09/23 09:38:06;;;;;;;2.35;0.85;;;;;;;;;;5023467;28;20111;-65
2021/09/23 09:40:34;;;;;;;5.47;0.90;;;;;;;;;;5029025;28;20053;-64
2021/09/23 09:43:05;;;;;;;3.05;0.65;;;;;;;;;;5027375;28;20111;-64
2021/09/23 09:45:32;;;;;;;5.00;1.00;;;;;;;;;;5026822;28;20053;-65
2021/09/23 09:47:59;;;;;;;2.92;0.68;;;;;;;;;;5027318;28;20781;-65
2021/09/23 09:50:30;;;;;;;3.17;0.80;;;;;;;;;;5024969;28;20513;-65
2021/09/23 09:52:59;;;;;;;5.53;0.88;;;;;;;;;;5022907;28;20056;-65
2021/09/23 09:55:27;;;;;;;5.15;1.00;;;;;;;;;;5025157;28;20099;-65
2021/09/23 09:57:53;;;;;;;;;;;;;;;;;;5024572;28;20045;-65
2021/09/23 10:00:21;;;;;;;0.68;0.40;;;;;;;;;;5026165;28;19975;-66
2021/09/23 10:02:48;;;;;;;7.47;1.00;;;;;;;;;;5025758;28;20049;-65
2021/09/23 10:05:16;;;;;;;3.85;0.73;;;;;;;;;;5023689;28;20041;-65
2021/09/23 10:07:47;;;;;;;;;;;;;;;;;;5021800;28;20133;-64
2021/09/23 10:10:14;;;;;;;7.55;1.20;;;;;;;;;;5020447;28;19925;-64
2021/09/23 10:12:42;;;;;;;3.30;1.13;;;;;;;;;;5029576;28;20048;-64
2021/09/23 10:15:14;;;;;;;2.00;1.10;;;;;;;;;;5013521;28;20145;-64
2021/09/23 10:17:41;;;;;;;1.85;0.70;;;;;;;;;;5024412;28;20061;-64
2021/09/23 10:20:12;;;;;;;1.02;0.50;;;;;;;;;;5027642;28;20078;-64
2021/09/23 10:22:39;;;;;;;7.00;1.00;;;;;;;;;;5021467;28;20104;-65
2021/09/23 10:25:07;;;;;;;0.67;0.40;;;;;;;;;;5026277;28;20049;-65
2021/09/23 10:30:20;;;;;;;6.60;0.95;;;;;;;;;;5026627;28;20053;-64
2021/09/23 10:32:47;;;;;;;2.95;0.95;;;;;;;;;;5021301;28;20053;-64
2021/09/23 10:35:13;;;;;;;5.10;0.98;;;;;;;;;;5018564;28;20053;-64
2021/09/23 10:37:40;;;;;;;6.13;1.27;;;;;;;;;;5013894;28;20099;-64
2021/09/23 10:40:08;;;;;;;3.00;0.60;;;;;;;;;;5019295;28;20057;-64
2021/09/23 10:42:35;;;;;;;5.20;1.10;;;;;;;;;;5020159;28;20127;-64
2021/09/23 10:45:04;;;;;;;3.53;1.30;;;;;;;;;;5020731;28;20049;-64
2021/09/23 10:47:34;;;;;;;3.28;0.57;;;;;;;;;;5010889;28;20046;-64
2021/09/23 10:50:03;;;;;;;5.57;0.93;;;;;;;;;;5015316;28;20057;-64
2021/09/23 10:52:31;;;;;;;6.43;0.77;;;;;;;;;;5025279;28;20049;-64
2021/09/23 10:54:58;;;;;;;8.02;0.95;;;;;;;;;;5018184;28;20521;-64
2021/09/23 10:57:26;;;;;;;8.65;1.13;;;;;;;;;;5020417;28;20053;-64
2021/09/23 10:59:53;;;;;;;4.03;0.85;;;;;;;;;;5023678;28;20060;-64
2021/09/23 11:02:19;;;;;;;4.03;1.20;;;;;;;;;;5023668;28;20464;-64
2021/09/23 11:04:47;;;;;;;;;;;;;;;;;;5017987;28;20049;-64
2021/09/23 11:07:14;;;;;;;3.33;0.90;;;;;;;;;;5016436;28;20011;-64
2021/09/23 11:10:00;;;;;;;4.55;1.20;;;;;;;;;;5021253;28;20065;-64
2021/09/23 11:12:27;;;;;;;9.52;1.77;;;;;;;;;;5019796;28;20038;-64
2021/09/23 11:14:57;;;;;;;4.85;1.27;;;;;;;;;;5022965;28;20049;-64
2021/09/23 11:17:24;;;;;;;10.43;1.73;;;;;;;;;;5023118;28;20496;-64
2021/09/23 11:20:02;;;;;;;6.78;1.50;;;;;;;;;;5020512;28;20443;-64
2021/09/23 11:22:40;;;;;;;7.03;1.33;;;;;;;;;;5024422;28;20570;-65
2021/09/23 11:25:17;;;;;;;10.35;1.20;;;;;;;;;;5024524;28;20061;-65
2021/09/23 11:27:46;;;;;;;13.25;1.85;;;;;;;;;;5024576;28;20702;-65
2021/09/23 11:30:14;;;;;;;6.13;1.73;;;;;;;;;;5024706;28;20054;-65
2021/09/23 11:32:48;;;;;;;11.85;1.50;;;;;;;;;;5022869;28;20045;-65
2021/09/23 11:35:15;;;;;;;12.80;1.90;;;;;;;;;;5025465;28;20119;-65
2021/09/23 11:37:41;;;;;;;7.10;1.50;;;;;;;;;;5021165;28;20049;-65
2021/09/23 11:40:08;;;;;;;15.63;2.20;;;;;;;;;;5016850;28;20054;-65
2021/09/23 11:42:36;;;;;;;11.70;1.85;;;;;;;;;;5019923;28;20122;-64
2021/09/23 11:45:12;;;;;;;8.52;2.03;;;;;;;;;;5015461;28;20490;-65
2021/09/23 11:47:46;;;;;;;13.23;1.98;;;;;;;;;;5021384;28;20049;-65
2021/09/23 11:50:29;;;;;;;7.63;1.90;;;;;;;;;;5018536;28;20072;-65
2021/09/23 11:52:59;;;;;;;13.68;2.35;;;;;;;;;;5018845;28;20042;-65
2021/09/23 11:55:25;;;;;;;15.63;3.15;;;;;;;;;;5022549;28;20705;-65
2021/09/23 11:58:05;;;;;;;15.15;2.08;;;;;;;;;;5018862;28;20045;-64
2021/09/23 12:00:41;;;;;;;11.95;2.30;;;;;;;;;;5017962;28;20048;-65
2021/09/23 12:03:09;;;;;;;18.83;2.80;;;;;;;;;;5019027;28;20054;-64
2021/09/23 12:05:37;;;;;;;18.60;2.58;;;;;;;;;;5020144;28;20172;-64
2021/09/23 12:08:04;;;;;;;12.50;2.38;;;;;;;;;;5025011;28;20103;-64
2021/09/23 12:10:31;;;;;;;15.43;3.28;;;;;;;;;;5021788;28;20057;-64
2021/09/23 12:12:59;;;;;;;22.38;3.65;;;;;;;;;;5023523;28;20072;-64
2021/09/23 12:15:28;;;;;;;20.15;3.08;;;;;;;;;;5019045;28;20497;-64
2021/09/23 12:17:56;;;;;;;21.33;2.95;;;;;;;;;;5024306;28;20114;-64
2021/09/23 12:20:43;;;;;;;;;;;;;;;;;;5021224;28;20041;-64
2021/09/23 12:23:28;;;;;;;24.10;3.22;;;;;;;;;;5023157;28;19975;-64
2021/09/23 12:26:04;;;;;;;21.10;3.17;;;;;;;;;;5023975;28;20045;-64
2021/09/23 12:28:31;;;;;;;15.73;3.03;;;;;;;;;;5021227;28;20051;-64
2021/09/23 12:31:02;;;;;;;17.30;3.17;;;;;;;;;;5027208;28;20053;-64
2021/09/23 12:33:28;;;;;;;20.02;3.10;;;;;;;;;;5020427;28;20135;-64
2021/09/23 12:36:12;;;;;;;23.95;3.55;;;;;;;;;;5021650;28;20054;-65
2021/09/23 12:38:40;;;;;;;17.45;3.30;;;;;;;;;;5025049;28;20107;-65
2021/09/23 12:41:19;;;;;;;18.65;3.13;;;;;;;;;;5024708;28;20056;-65
2021/09/23 12:43:51;;;;;;;16.42;3.00;;;;;;;;;;5024610;28;20073;-65
2021/09/23 12:46:18;;;;;;;22.17;3.33;;;;;;;;;;5027336;28;20053;-65
2021/09/23 12:48:48;;;;;;;22.08;3.65;;;;;;;;;;5030184;28;20061;-65
2021/09/23 12:51:33;;;;;;;26.88;3.85;;;;;;;;;;5023266;28;20518;-65
2021/09/23 12:54:14;;;;;;;20.65;3.50;;;;;;;;;;5022208;28;20386;-65
2021/09/23 12:56:42;;;;;;;19.45;3.10;;;;;;;;;;5030054;28;20050;-65
2021/09/23 12:59:22;;;;;;;18.03;2.90;;;;;;;;;;5021678;28;20061;-65
2021/09/23 13:01:50;;;;;;;17.08;2.72;;;;;;;;;;5022100;28;20557;-65
2021/09/23 13:04:23;;;;;;;12.38;2.45;;;;;;;;;;5020249;28;20077;-65
2021/09/23 13:06:50;;;;;;;14.02;2.75;;;;;;;;;;5021194;28;20049;-64
2021/09/23 13:09:17;;;;;;;25.85;3.63;;;;;;;;;;5018790;28;20053;-64
2021/09/23 13:11:44;;;;;;;25.60;3.80;;;;;;;;;;5023193;28;20054;-65
2021/09/23 13:14:17;;;;;;;26.55;3.85;;;;;;;;;;5026305;28;20129;-64
2021/09/23 13:16:44;;;;;;;23.33;4.03;;;;;;;;;;5021736;28;20536;-64
2021/09/23 13:19:11;;;;;;;28.73;4.95;;;;;;;;;;5023802;28;20053;-64
2021/09/23 13:21:38;;;;;;;27.98;4.35;;;;;;;;;;5027030;28;20386;-65
2021/09/23 13:24:04;;;;;;;26.95;3.58;;;;;;;;;;5024183;28;20106;-65
2021/09/23 13:26:31;;;;;;;25.27;4.40;;;;;;;;;;5024311;28;20131;-66
2021/09/23 13:28:58;;;;;;;22.33;3.55;;;;;;;;;;5026500;28;20073;-66
2021/09/23 13:31:25;;;;;;;18.88;4.18;;;;;;;;;;5027294;28;20053;-66
2021/09/23 13:33:52;;;;;;;24.08;3.90;;;;;;;;;;5024455;28;20041;-66
2021/09/23 13:36:19;;;;;;;23.63;3.50;;;;;;;;;;5018213;28;20452;-66
2021/09/23 13:38:46;;;;;;;23.13;4.00;;;;;;;;;;5023990;28;20057;-65
2021/09/23 13:41:13;;;;;;;18.58;3.72;;;;;;;;;;5025092;28;20111;-65
2021/09/23 13:43:40;;;;;;;18.30;3.65;;;;;;;;;;5023246;28;20784;-64
2021/09/23 13:46:07;;;;;;;18.80;3.50;;;;;;;;;;5019827;28;20049;-64
2021/09/23 13:48:35;;;;;;;23.13;3.75;;;;;;;;;;5023445;28;20069;-64
2021/09/23 13:51:02;;;;;;;25.20;4.23;;;;;;;;;;5025924;28;20048;-64
2021/09/23 13:53:29;;;;;;;25.70;4.07;;;;;;;;;;5022795;28;20060;-64
2021/09/23 13:55:56;;;;;;;27.33;3.38;;;;;;;;;;5024724;28;20441;-64
2021/09/23 13:58:22;;;;;;;33.33;4.40;;;;;;;;;;5023794;28;20060;-64
2021/09/23 14:00:49;;;;;;;35.17;5.65;;;;;;;;;;5020645;28;20048;-64
2021/09/23 14:03:16;;;;;;;33.50;4.55;;;;;;;;;;5021228;28;20099;-66
2021/09/23 14:05:43;;;;;;;22.95;3.67;;;;;;;;;;5030015;28;20042;-65
2021/09/23 14:08:10;;;;;;;32.13;4.57;;;;;;;;;;5026160;28;20076;-65
2021/09/23 14:10:37;;;;;;;33.87;4.70;;;;;;;;;;5024219;28;20108;-65
2021/09/23 14:13:04;;;;;;;32.42;4.75;;;;;;;;;;5018889;28;20658;-64
2021/09/23 14:15:30;;;;;;;24.33;3.87;;;;;;;;;;5021190;28;20060;-64
2021/09/23 14:17:57;;;;;;;29.63;4.53;;;;;;;;;;5020116;28;20103;-64
2021/09/23 14:20:41;;;;;;;30.75;4.13;;;;;;;;;;5014607;28;20089;-63
2021/09/23 14:23:07;;;;;;;;;;;;;;;;;;5024819;28;20559;-64
2021/09/23 14:25:34;;;;;;;24.10;3.00;;;;;;;;;;5021718;28;19928;-63
2021/09/23 14:28:01;;;;;;;18.70;3.38;;;;;;;;;;5028541;28;20555;-64
2021/09/23 14:30:28;;;;;;;25.88;4.47;;;;;;;;;;5025313;28;20050;-63
2021/09/23 14:32:54;;;;;;;13.38;2.92;;;;;;;;;;5020119;28;20049;-64
2021/09/23 14:35:21;;;;;;;13.07;3.22;;;;;;;;;;5020993;28;20054;-63
2021/09/23 14:37:47;;;;;;;25.25;3.33;;;;;;;;;;5022318;28;20053;-64
2021/09/23 14:40:14;;;;;;;12.57;3.15;;;;;;;;;;5020009;28;20700;-64
2021/09/23 14:42:43;;;;;;;23.73;3.00;;;;;;;;;;5021005;28;20049;-63
2021/09/23 14:45:14;;;;;;;12.00;2.60;;;;;;;;;;5022665;28;20081;-64
2021/09/23 14:47:40;;;;;;;11.88;2.72;;;;;;;;;;5017796;28;20572;-64